sensor_id;sensor_type;location;lat;lon;timestamp;pressure;altitude;pressure_sealevel;temperature;humidity
60417;BME280;46263;44.726;10.396;2022-10-16T00:01:47;100935.28;;;20.53;64.65
60417;BME280;46263;44.726;10.396;2022-10-16T00:04:12;100929.03;;;20.55;64.91
60417;BME280;46263;44.726;10.396;2022-10-16T00:06:38;100939.63;;;20.54;64.79
60417;BME280;46263;44.726;10.396;2022-10-16T00:09:04;100940.94;;;20.53;64.96
60417;BME280;46263;44.726;10.396;2022-10-16T00:11:35;100940.41;;;20.55;64.78
60417;BME280;46263;44.726;10.396;2022-10-16T00:14:04;100946.81;;;20.55;64.97
60417;BME280;46263;44.726;10.396;2022-10-16T00:16:31;100951.75;;;20.55;64.53
60417;BME280;46263;44.726;10.396;2022-10-16T00:18:57;100956.09;;;20.56;64.81
60417;BME280;46263;44.726;10.396;2022-10-16T00:21:26;100953.81;;;20.54;64.90
60417;BME280;46263;44.726;10.396;2022-10-16T00:23:54;100959.69;;;20.56;64.85
60417;BME280;46263;44.726;10.396;2022-10-16T00:26:20;100965.38;;;20.56;64.78
60417;BME280;46263;44.726;10.396;2022-10-16T00:28:47;100964.03;;;20.57;64.61
60417;BME280;46263;44.726;10.396;2022-10-16T00:31:13;100961.03;;;20.55;64.80
60417;BME280;46263;44.726;10.396;2022-10-16T00:33:40;100962.53;;;20.56;65.13
60417;BME280;46263;44.726;10.396;2022-10-16T00:36:06;100965.97;;;20.55;64.73
60417;BME280;46263;44.726;10.396;2022-10-16T00:38:32;100961.03;;;20.55;65.00
60417;BME280;46263;44.726;10.396;2022-10-16T00:40:58;100958.19;;;20.55;64.93
60417;BME280;46263;44.726;10.396;2022-10-16T00:43:35;100960.28;;;20.55;64.97
60417;BME280;46263;44.726;10.396;2022-10-16T00:46:04;100961.03;;;20.55;64.77
60417;BME280;46263;44.726;10.396;2022-10-16T00:48:30;100958.91;;;20.56;65.05
60417;BME280;46263;44.726;10.396;2022-10-16T00:50:56;100964.59;;;20.56;65.02
60417;BME280;46263;44.726;10.396;2022-10-16T00:53:24;100966.69;;;20.55;64.95
60417;BME280;46263;44.726;10.396;2022-10-16T00:55:51;100972.38;;;20.55;64.95
60417;BME280;46263;44.726;10.396;2022-10-16T00:58:16;100964.59;;;20.56;64.68
60417;BME280;46263;44.726;10.396;2022-10-16T01:00:42;100967.44;;;20.56;65.02
60417;BME280;46263;44.726;10.396;2022-10-16T01:08:57;100973.91;;;20.56;64.99
60417;BME280;46263;44.726;10.396;2022-10-16T01:11:36;100964.59;;;20.56;64.97
60417;BME280;46263;44.726;10.396;2022-10-16T01:17:09;100965.38;;;20.56;64.95
60417;BME280;46263;44.726;10.396;2022-10-16T01:22:06;100965.19;;;20.54;64.86
60417;BME280;46263;44.726;10.396;2022-10-16T01:24:48;100963.88;;;20.55;65.01
60417;BME280;46263;44.726;10.396;2022-10-16T01:27:20;100958.78;;;20.54;64.87
60417;BME280;46263;44.726;10.396;2022-10-16T01:30:04;100959.50;;;20.54;64.95
60417;BME280;46263;44.726;10.396;2022-10-16T01:32:53;100965.19;;;20.54;65.03
60417;BME280;46263;44.726;10.396;2022-10-16T01:38:06;100960.28;;;20.55;64.95
60417;BME280;46263;44.726;10.396;2022-10-16T01:40:35;100961.75;;;20.56;64.95
60417;BME280;46263;44.726;10.396;2022-10-16T01:43:23;100955.34;;;20.55;65.08
60417;BME280;46263;44.726;10.396;2022-10-16T01:45:51;100958.19;;;20.55;64.84
60417;BME280;46263;44.726;10.396;2022-10-16T01:48:19;100960.28;;;20.55;65.03
60417;BME280;46263;44.726;10.396;2022-10-16T01:50:53;100960.28;;;20.55;65.13
60417;BME280;46263;44.726;10.396;2022-10-16T01:53:20;100970.88;;;20.54;65.48
60417;BME280;46263;44.726;10.396;2022-10-16T01:55:47;100960.28;;;20.55;65.05
60417;BME280;46263;44.726;10.396;2022-10-16T01:58:14;100961.75;;;20.56;64.79
60417;BME280;46263;44.726;10.396;2022-10-16T02:00:43;100963.88;;;20.55;65.11
60417;BME280;46263;44.726;10.396;2022-10-16T02:03:11;100971.06;;;20.56;65.03
60417;BME280;46263;44.726;10.396;2022-10-16T02:05:45;100969.53;;;20.55;65.05
60417;BME280;46263;44.726;10.396;2022-10-16T02:08:11;100970.28;;;20.56;64.99
60417;BME280;46263;44.726;10.396;2022-10-16T02:10:37;100968.97;;;20.57;64.95
60417;BME280;46263;44.726;10.396;2022-10-16T02:13:06;100973.13;;;20.56;65.12
60417;BME280;46263;44.726;10.396;2022-10-16T02:15:34;100969.53;;;20.55;65.03
60417;BME280;46263;44.726;10.396;2022-10-16T02:18:02;100972.56;;;20.57;65.12
60417;BME280;46263;44.726;10.396;2022-10-16T02:20:32;100978.25;;;20.57;65.01
60417;BME280;46263;44.726;10.396;2022-10-16T02:23:00;100969.53;;;20.55;65.13
60417;BME280;46263;44.726;10.396;2022-10-16T02:25:37;100978.06;;;20.55;64.93
60417;BME280;46263;44.726;10.396;2022-10-16T02:28:07;100969.53;;;20.55;65.04
60417;BME280;46263;44.726;10.396;2022-10-16T02:30:52;100961.03;;;20.55;65.07
60417;BME280;46263;44.726;10.396;2022-10-16T02:33:21;100963.88;;;20.55;65.22
60417;BME280;46263;44.726;10.396;2022-10-16T02:35:48;100968.22;;;20.56;65.04
60417;BME280;46263;44.726;10.396;2022-10-16T02:38:17;100971.06;;;20.56;65.10
60417;BME280;46263;44.726;10.396;2022-10-16T02:40:44;100969.72;;;20.57;65.03
60417;BME280;46263;44.726;10.396;2022-10-16T02:43:10;100977.47;;;20.57;65.05
60417;BME280;46263;44.726;10.396;2022-10-16T02:45:36;100983.16;;;20.57;65.10
60417;BME280;46263;44.726;10.396;2022-10-16T02:48:01;100976.75;;;20.56;64.94
60417;BME280;46263;44.726;10.396;2022-10-16T02:50:27;100980.91;;;20.55;64.95
60417;BME280;46263;44.726;10.396;2022-10-16T02:52:52;100978.81;;;20.56;65.10
60417;BME280;46263;44.726;10.396;2022-10-16T02:55:18;100990.94;;;20.56;64.96
60417;BME280;46263;44.726;10.396;2022-10-16T02:57:44;100978.25;;;20.57;64.92
60417;BME280;46263;44.726;10.396;2022-10-16T03:00:12;100985.25;;;20.56;64.94
60417;BME280;46263;44.726;10.396;2022-10-16T03:02:38;100992.47;;;20.57;64.95
60417;BME280;46263;44.726;10.396;2022-10-16T03:05:04;100989.63;;;20.57;64.86
60417;BME280;46263;44.726;10.396;2022-10-16T03:07:29;100997.38;;;20.57;65.20
60417;BME280;46263;44.726;10.396;2022-10-16T03:09:55;100990.94;;;20.56;64.97
60417;BME280;46263;44.726;10.396;2022-10-16T03:12:21;100990.94;;;20.56;65.05
60417;BME280;46263;44.726;10.396;2022-10-16T03:14:47;100992.47;;;20.57;64.80
60417;BME280;46263;44.726;10.396;2022-10-16T03:17:12;100995.28;;;20.57;64.95
60417;BME280;46263;44.726;10.396;2022-10-16T03:19:38;100999.47;;;20.56;64.92
60417;BME280;46263;44.726;10.396;2022-10-16T03:22:04;100993.78;;;20.56;64.82
60417;BME280;46263;44.726;10.396;2022-10-16T03:24:29;101001.53;;;20.56;64.96
60417;BME280;46263;44.726;10.396;2022-10-16T03:26:55;101000.78;;;20.55;65.13
60417;BME280;46263;44.726;10.396;2022-10-16T03:29:20;100998.69;;;20.56;65.05
60417;BME280;46263;44.726;10.396;2022-10-16T03:31:46;101002.91;;;20.55;65.12
60417;BME280;46263;44.726;10.396;2022-10-16T03:34:13;101005.16;;;20.56;64.95
60417;BME280;46263;44.726;10.396;2022-10-16T03:36:39;101001.53;;;20.56;65.28
60417;BME280;46263;44.726;10.396;2022-10-16T03:39:04;101005.88;;;20.57;65.03
60417;BME280;46263;44.726;10.396;2022-10-16T03:41:29;101001.53;;;20.56;64.96
60417;BME280;46263;44.726;10.396;2022-10-16T03:43:55;101010.81;;;20.56;65.04
60417;BME280;46263;44.726;10.396;2022-10-16T03:46:20;101003.81;;;20.57;65.03
60417;BME280;46263;44.726;10.396;2022-10-16T03:48:46;101010.06;;;20.56;65.00
60417;BME280;46263;44.726;10.396;2022-10-16T03:51:11;101006.66;;;20.57;65.02
60417;BME280;46263;44.726;10.396;2022-10-16T03:53:36;101009.50;;;20.57;64.85
60417;BME280;46263;44.726;10.396;2022-10-16T03:56:02;101012.34;;;20.57;65.05
60417;BME280;46263;44.726;10.396;2022-10-16T03:58:27;101010.25;;;20.58;65.07
60417;BME280;46263;44.726;10.396;2022-10-16T04:00:54;101012.34;;;20.57;65.14
60417;BME280;46263;44.726;10.396;2022-10-16T04:03:19;101022.38;;;20.58;65.00
60417;BME280;46263;44.726;10.396;2022-10-16T04:05:46;101015.19;;;20.57;64.89
60417;BME280;46263;44.726;10.396;2022-10-16T04:08:12;101015.00;;;20.55;65.05
60417;BME280;46263;44.726;10.396;2022-10-16T04:10:37;101020.09;;;20.57;65.07
60417;BME280;46263;44.726;10.396;2022-10-16T04:13:03;101025.03;;;20.56;64.90
60417;BME280;46263;44.726;10.396;2022-10-16T04:15:28;101022.94;;;20.57;64.94
60417;BME280;46263;44.726;10.396;2022-10-16T04:17:53;101026.53;;;20.57;65.13
60417;BME280;46263;44.726;10.396;2022-10-16T04:20:19;101020.88;;;20.57;64.96
60417;BME280;46263;44.726;10.396;2022-10-16T04:22:45;101025.78;;;20.57;65.14
60417;BME280;46263;44.726;10.396;2022-10-16T04:25:10;101018.75;;;20.58;64.99
60417;BME280;46263;44.726;10.396;2022-10-16T04:27:37;101025.22;;;20.58;64.93
60417;BME280;46263;44.726;10.396;2022-10-16T04:30:03;101020.88;;;20.57;64.99
60417;BME280;46263;44.726;10.396;2022-10-16T04:32:29;101025.78;;;20.57;65.21
60417;BME280;46263;44.726;10.396;2022-10-16T04:34:54;101023.69;;;20.57;65.09
60417;BME280;46263;44.726;10.396;2022-10-16T04:37:26;101022.19;;;20.56;65.33
60417;BME280;46263;44.726;10.396;2022-10-16T04:39:52;101030.72;;;20.56;64.97
60417;BME280;46263;44.726;10.396;2022-10-16T04:42:19;101017.84;;;20.55;64.88
60417;BME280;46263;44.726;10.396;2022-10-16T04:44:44;101029.19;;;20.55;65.24
60417;BME280;46263;44.726;10.396;2022-10-16T04:47:10;101027.09;;;20.56;64.92
60417;BME280;46263;44.726;10.396;2022-10-16T04:49:35;101036.41;;;20.56;64.90
60417;BME280;46263;44.726;10.396;2022-10-16T04:52:01;101029.94;;;20.56;64.96
60417;BME280;46263;44.726;10.396;2022-10-16T04:54:26;101034.88;;;20.55;65.10
60417;BME280;46263;44.726;10.396;2022-10-16T04:56:52;101037.13;;;20.57;64.92
60417;BME280;46263;44.726;10.396;2022-10-16T04:59:18;101039.25;;;20.56;64.96
60417;BME280;46263;44.726;10.396;2022-10-16T05:01:44;101037.13;;;20.57;65.02
60417;BME280;46263;44.726;10.396;2022-10-16T05:04:10;101039.25;;;20.56;64.94
60417;BME280;46263;44.726;10.396;2022-10-16T05:06:37;101039.06;;;20.54;65.04
60417;BME280;46263;44.726;10.396;2022-10-16T05:09:06;101041.88;;;20.54;64.99
60417;BME280;46263;44.726;10.396;2022-10-16T05:11:32;101034.88;;;20.55;65.08
60417;BME280;46263;44.726;10.396;2022-10-16T05:13:57;101041.31;;;20.56;64.76
60417;BME280;46263;44.726;10.396;2022-10-16T05:16:23;101036.97;;;20.55;64.92
60417;BME280;46263;44.726;10.396;2022-10-16T05:18:48;101036.41;;;20.56;64.94
60417;BME280;46263;44.726;10.396;2022-10-16T05:21:14;101041.31;;;20.56;65.15
60417;BME280;46263;44.726;10.396;2022-10-16T05:23:39;101036.41;;;20.56;64.90
60417;BME280;46263;44.726;10.396;2022-10-16T05:26:05;101042.06;;;20.56;64.99
60417;BME280;46263;44.726;10.396;2022-10-16T05:28:30;101051.19;;;20.55;64.88
60417;BME280;46263;44.726;10.396;2022-10-16T05:30:56;101047.75;;;20.56;65.13
60417;BME280;46263;44.726;10.396;2022-10-16T05:33:24;101053.44;;;20.56;65.07
60417;BME280;46263;44.726;10.396;2022-10-16T05:35:50;101048.50;;;20.57;65.13
60417;BME280;46263;44.726;10.396;2022-10-16T05:38:17;101053.44;;;20.56;64.99
60417;BME280;46263;44.726;10.396;2022-10-16T05:40:43;101060.44;;;20.55;64.93
60417;BME280;46263;44.726;10.396;2022-10-16T05:43:08;101061.19;;;20.56;64.87
60417;BME280;46263;44.726;10.396;2022-10-16T05:45:34;101058.94;;;20.54;64.88
60417;BME280;46263;44.726;10.396;2022-10-16T05:48:00;101061.97;;;20.56;64.88
60417;BME280;46263;44.726;10.396;2022-10-16T05:50:26;101066.31;;;20.57;64.84
60417;BME280;46263;44.726;10.396;2022-10-16T05:52:51;101062.69;;;20.57;64.92
60417;BME280;46263;44.726;10.396;2022-10-16T05:55:17;101072.00;;;20.57;64.96
60417;BME280;46263;44.726;10.396;2022-10-16T05:57:42;101079.00;;;20.56;64.86
60417;BME280;46263;44.726;10.396;2022-10-16T06:00:09;101075.41;;;20.56;64.76
60417;BME280;46263;44.726;10.396;2022-10-16T06:02:34;101076.91;;;20.57;64.84
60417;BME280;46263;44.726;10.396;2022-10-16T06:05:00;101081.06;;;20.56;64.79
60417;BME280;46263;44.726;10.396;2022-10-16T06:07:25;101081.06;;;20.56;64.83
60417;BME280;46263;44.726;10.396;2022-10-16T06:09:51;101083.91;;;20.56;64.70
60417;BME280;46263;44.726;10.396;2022-10-16T06:12:17;101098.13;;;20.56;64.72
60417;BME280;46263;44.726;10.396;2022-10-16T06:14:44;101093.22;;;20.56;64.84
60417;BME280;46263;44.726;10.396;2022-10-16T06:17:09;101101.75;;;20.56;64.87
60417;BME280;46263;44.726;10.396;2022-10-16T06:19:35;101115.34;;;20.58;64.83
60417;BME280;46263;44.726;10.396;2022-10-16T06:22:00;101104.56;;;20.56;64.82
60417;BME280;46263;44.726;10.396;2022-10-16T06:24:27;101118.00;;;20.56;64.71
60417;BME280;46263;44.726;10.396;2022-10-16T06:26:53;101120.84;;;20.56;64.78
60417;BME280;46263;44.726;10.396;2022-10-16T06:29:18;101124.47;;;20.56;64.82
60417;BME280;46263;44.726;10.396;2022-10-16T06:31:44;101125.19;;;20.57;64.77
60417;BME280;46263;44.726;10.396;2022-10-16T06:34:10;101134.50;;;20.57;64.64
60417;BME280;46263;44.726;10.396;2022-10-16T06:36:37;101138.66;;;20.56;64.74
60417;BME280;46263;44.726;10.396;2022-10-16T06:39:03;101143.03;;;20.57;64.75
60417;BME280;46263;44.726;10.396;2022-10-16T06:41:30;101138.66;;;20.56;64.79
60417;BME280;46263;44.726;10.396;2022-10-16T06:43:56;101143.56;;;20.56;64.86
60417;BME280;46263;44.726;10.396;2022-10-16T06:46:23;101144.16;;;20.54;64.99
60417;BME280;46263;44.726;10.396;2022-10-16T06:48:49;101150.03;;;20.56;64.87
60417;BME280;46263;44.726;10.396;2022-10-16T06:51:17;101159.28;;;20.57;64.90
60417;BME280;46263;44.726;10.396;2022-10-16T06:53:45;101154.38;;;20.57;64.69
60417;BME280;46263;44.726;10.396;2022-10-16T06:56:16;101159.13;;;20.55;64.68
60417;BME280;46263;44.726;10.396;2022-10-16T06:58:42;101162.72;;;20.55;64.78
60417;BME280;46263;44.726;10.396;2022-10-16T07:01:08;101167.66;;;20.55;64.84
60417;BME280;46263;44.726;10.396;2022-10-16T07:03:36;101179.75;;;20.55;64.88
60417;BME280;46263;44.726;10.396;2022-10-16T07:06:03;101169.72;;;20.54;64.95
60417;BME280;46263;44.726;10.396;2022-10-16T07:08:33;101187.53;;;20.55;64.76
60417;BME280;46263;44.726;10.396;2022-10-16T07:11:00;101182.59;;;20.55;64.56
60417;BME280;46263;44.726;10.396;2022-10-16T07:13:26;101185.44;;;20.55;64.88
60417;BME280;46263;44.726;10.396;2022-10-16T07:15:51;101193.38;;;20.57;64.91
60417;BME280;46263;44.726;10.396;2022-10-16T07:18:17;101196.06;;;20.55;64.75
60417;BME280;46263;44.726;10.396;2022-10-16T07:20:42;101196.06;;;20.55;65.00
60417;BME280;46263;44.726;10.396;2022-10-16T07:23:07;101194.72;;;20.56;64.74
60417;BME280;46263;44.726;10.396;2022-10-16T07:25:33;101193.22;;;20.55;65.05
60417;BME280;46263;44.726;10.396;2022-10-16T07:27:58;101202.50;;;20.55;64.94
60417;BME280;46263;44.726;10.396;2022-10-16T07:30:23;101200.97;;;20.54;64.74
60417;BME280;46263;44.726;10.396;2022-10-16T07:32:49;101196.06;;;20.55;65.07
60417;BME280;46263;44.726;10.396;2022-10-16T07:35:14;101203.81;;;20.54;65.41
60417;BME280;46263;44.726;10.396;2022-10-16T07:37:44;101213.66;;;20.53;64.76
60417;BME280;46263;44.726;10.396;2022-10-16T07:40:11;101214.44;;;20.54;64.76
60417;BME280;46263;44.726;10.396;2022-10-16T07:42:36;101215.19;;;20.54;64.71
60417;BME280;46263;44.726;10.396;2022-10-16T07:45:02;101217.44;;;20.56;64.83
60417;BME280;46263;44.726;10.396;2022-10-16T07:47:27;101221.63;;;20.55;64.83
60417;BME280;46263;44.726;10.396;2022-10-16T07:49:53;101229.56;;;20.56;64.88
60417;BME280;46263;44.726;10.396;2022-10-16T07:52:18;101231.66;;;20.56;64.76
60417;BME280;46263;44.726;10.396;2022-10-16T07:54:44;101232.41;;;20.56;64.68
60417;BME280;46263;44.726;10.396;2022-10-16T07:57:09;101230.16;;;20.55;65.12
60417;BME280;46263;44.726;10.396;2022-10-16T07:59:35;101230.91;;;20.55;64.92
60417;BME280;46263;44.726;10.396;2022-10-16T08:02:00;101235.25;;;20.56;65.07
60417;BME280;46263;44.726;10.396;2022-10-16T08:04:25;101240.94;;;20.56;65.03
60417;BME280;46263;44.726;10.396;2022-10-16T08:06:51;101245.09;;;20.55;65.06
60417;BME280;46263;44.726;10.396;2022-10-16T08:09:16;101237.31;;;20.56;65.05
60417;BME280;46263;44.726;10.396;2022-10-16T08:11:42;101238.69;;;20.55;64.73
60417;BME280;46263;44.726;10.396;2022-10-16T08:14:07;101239.44;;;20.55;64.86
60417;BME280;46263;44.726;10.396;2022-10-16T08:16:33;101249.28;;;20.54;65.21
60417;BME280;46263;44.726;10.396;2022-10-16T08:18:58;101249.28;;;20.54;65.02
60417;BME280;46263;44.726;10.396;2022-10-16T08:21:23;101252.13;;;20.54;65.15
60417;BME280;46263;44.726;10.396;2022-10-16T08:23:50;101252.13;;;20.54;65.05
60417;BME280;46263;44.726;10.396;2022-10-16T08:26:16;101259.31;;;20.55;64.76
60417;BME280;46263;44.726;10.396;2022-10-16T08:28:41;101265.75;;;20.56;64.86
60417;BME280;46263;44.726;10.396;2022-10-16T08:31:14;101254.97;;;20.54;64.82
60417;BME280;46263;44.726;10.396;2022-10-16T08:33:42;101261.22;;;20.53;65.12
60417;BME280;46263;44.726;10.396;2022-10-16T08:36:09;101257.06;;;20.54;64.88
60417;BME280;46263;44.726;10.396;2022-10-16T08:38:35;101255.72;;;20.55;64.92
60417;BME280;46263;44.726;10.396;2022-10-16T08:43:54;101254.97;;;20.54;65.18
60417;BME280;46263;44.726;10.396;2022-10-16T08:49:30;101253.81;;;20.57;64.92
60417;BME280;46263;44.726;10.396;2022-10-16T08:51:56;101249.06;;;20.60;64.73
60417;BME280;46263;44.726;10.396;2022-10-16T08:54:36;101251.53;;;20.63;64.96
60417;BME280;46263;44.726;10.396;2022-10-16T08:57:18;101253.03;;;20.72;65.18
60417;BME280;46263;44.726;10.396;2022-10-16T08:59:45;101261.38;;;20.77;65.00
60417;BME280;46263;44.726;10.396;2022-10-16T09:02:33;101259.44;;;20.87;65.08
60417;BME280;46263;44.726;10.396;2022-10-16T09:08:01;101256.78;;;20.89;65.26
60417;BME280;46263;44.726;10.396;2022-10-16T09:10:50;101264.00;;;20.83;65.55
60417;BME280;46263;44.726;10.396;2022-10-16T09:13:55;101267.25;;;20.79;65.67
60417;BME280;46263;44.726;10.396;2022-10-16T09:16:28;101272.72;;;20.77;65.58
60417;BME280;46263;44.726;10.396;2022-10-16T09:21:42;101265.16;;;20.72;66.09
60417;BME280;46263;44.726;10.396;2022-10-16T09:24:17;101271.41;;;20.71;65.93
60417;BME280;46263;44.726;10.396;2022-10-16T09:26:44;101269.31;;;20.71;66.07
60417;BME280;46263;44.726;10.396;2022-10-16T09:29:14;101283.34;;;20.69;66.02
60417;BME280;46263;44.726;10.396;2022-10-16T09:31:40;101275.38;;;20.68;65.91
60417;BME280;46263;44.726;10.396;2022-10-16T09:34:30;101270.44;;;20.68;65.91
60417;BME280;46263;44.726;10.396;2022-10-16T09:36:57;101267.44;;;20.66;66.10
60417;BME280;46263;44.726;10.396;2022-10-16T09:39:24;101267.44;;;20.66;66.19
60417;BME280;46263;44.726;10.396;2022-10-16T09:41:49;101265.94;;;20.65;66.23
60417;BME280;46263;44.726;10.396;2022-10-16T09:44:21;101272.34;;;20.66;66.10
60417;BME280;46263;44.726;10.396;2022-10-16T09:46:48;101267.25;;;20.64;66.54
60417;BME280;46263;44.726;10.396;2022-10-16T09:49:25;101268.00;;;20.65;66.59
60417;BME280;46263;44.726;10.396;2022-10-16T09:52:02;101268.19;;;20.67;66.26
60417;BME280;46263;44.726;10.396;2022-10-16T09:54:27;101265.34;;;20.67;65.92
60417;BME280;46263;44.726;10.396;2022-10-16T09:57:04;101264.03;;;20.68;66.43
60417;BME280;46263;44.726;10.396;2022-10-16T09:59:31;101264.78;;;20.68;66.30
60417;BME280;46263;44.726;10.396;2022-10-16T10:02:01;101270.44;;;20.68;66.67
60417;BME280;46263;44.726;10.396;2022-10-16T10:04:41;101261.94;;;20.68;66.33
60417;BME280;46263;44.726;10.396;2022-10-16T10:07:17;101260.59;;;20.69;66.59
60417;BME280;46263;44.726;10.396;2022-10-16T10:09:44;101260.59;;;20.69;66.58
60417;BME280;46263;44.726;10.396;2022-10-16T10:12:28;101271.97;;;20.69;66.48
60417;BME280;46263;44.726;10.396;2022-10-16T10:14:57;101271.22;;;20.69;66.78
60417;BME280;46263;44.726;10.396;2022-10-16T10:17:27;101271.97;;;20.69;66.80
60417;BME280;46263;44.726;10.396;2022-10-16T10:20:01;101272.75;;;20.70;66.58
60417;BME280;46263;44.726;10.396;2022-10-16T10:22:44;101267.59;;;20.68;66.65
60417;BME280;46263;44.726;10.396;2022-10-16T10:28:07;101265.94;;;20.65;66.79
60417;BME280;46263;44.726;10.396;2022-10-16T10:30:43;101260.78;;;20.64;66.74
60417;BME280;46263;44.726;10.396;2022-10-16T10:39:24;101251.34;;;20.61;66.98
60417;BME280;46263;44.726;10.396;2022-10-16T10:47:51;101251.34;;;20.61;66.84
60417;BME280;46263;44.726;10.396;2022-10-16T10:50:34;101254.19;;;20.61;66.88
60417;BME280;46263;44.726;10.396;2022-10-16T10:53:10;101264.81;;;20.61;66.87
60417;BME280;46263;44.726;10.396;2022-10-16T10:55:46;101255.50;;;20.60;66.75
60417;BME280;46263;44.726;10.396;2022-10-16T10:59:02;101253.44;;;20.61;66.91
60417;BME280;46263;44.726;10.396;2022-10-16T11:01:21;101256.09;;;20.59;66.84
60417;BME280;46263;44.726;10.396;2022-10-16T11:06:45;101247.75;;;20.61;66.84
60417;BME280;46263;44.726;10.396;2022-10-16T11:11:57;101240.56;;;20.60;66.98
60417;BME280;46263;44.726;10.396;2022-10-16T11:14:30;101242.66;;;20.59;66.86
60417;BME280;46263;44.726;10.396;2022-10-16T11:17:04;101240.56;;;20.60;66.98
60417;BME280;46263;44.726;10.396;2022-10-16T11:19:52;101243.41;;;20.60;66.74
60417;BME280;46263;44.726;10.396;2022-10-16T11:25:21;101245.50;;;20.59;66.61
60417;BME280;46263;44.726;10.396;2022-10-16T11:28:18;101234.69;;;20.58;66.59
60417;BME280;46263;44.726;10.396;2022-10-16T11:31:17;101229.78;;;20.58;66.55
60417;BME280;46263;44.726;10.396;2022-10-16T11:33:55;101235.63;;;20.60;66.49
60417;BME280;46263;44.726;10.396;2022-10-16T11:36:27;101241.28;;;20.60;66.43
60417;BME280;46263;44.726;10.396;2022-10-16T11:41:50;101244.13;;;20.60;66.36
60417;BME280;46263;44.726;10.396;2022-10-16T11:44:34;101234.88;;;20.60;66.52
60417;BME280;46263;44.726;10.396;2022-10-16T11:49:59;101233.34;;;20.59;66.32
60417;BME280;46263;44.726;10.396;2022-10-16T11:55:37;101231.28;;;20.59;66.53
60417;BME280;46263;44.726;10.396;2022-10-16T11:58:08;101226.34;;;20.60;66.52
60417;BME280;46263;44.726;10.396;2022-10-16T12:00:52;101227.09;;;20.60;66.31
60417;BME280;46263;44.726;10.396;2022-10-16T12:08:38;101226.34;;;20.60;66.44
60417;BME280;46263;44.726;10.396;2022-10-16T12:11:20;101230.50;;;20.59;66.24
60417;BME280;46263;44.726;10.396;2022-10-16T12:13:46;101227.69;;;20.59;66.17
60417;BME280;46263;44.726;10.396;2022-10-16T12:18:40;101228.44;;;20.59;66.19
60417;BME280;46263;44.726;10.396;2022-10-16T12:21:06;101226.94;;;20.58;66.15
60417;BME280;46263;44.726;10.396;2022-10-16T12:23:38;101228.44;;;20.59;66.37
60417;BME280;46263;44.726;10.396;2022-10-16T12:26:05;101224.84;;;20.59;66.16
60417;BME280;46263;44.726;10.396;2022-10-16T12:28:34;101234.13;;;20.59;66.16
60417;BME280;46263;44.726;10.396;2022-10-16T12:31:02;101234.88;;;20.60;66.13
60417;BME280;46263;44.726;10.396;2022-10-16T12:36:03;101230.50;;;20.59;66.16
60417;BME280;46263;44.726;10.396;2022-10-16T12:38:38;101225.59;;;20.59;65.73
60417;BME280;46263;44.726;10.396;2022-10-16T12:41:10;101232.63;;;20.58;66.02
60417;BME280;46263;44.726;10.396;2022-10-16T12:43:41;101238.47;;;20.60;66.39
60417;BME280;46263;44.726;10.396;2022-10-16T12:48:33;101234.88;;;20.60;66.26
60417;BME280;46263;44.726;10.396;2022-10-16T12:51:19;101239.03;;;20.59;66.12
60417;BME280;46263;44.726;10.396;2022-10-16T12:54:04;101230.50;;;20.59;65.95
60417;BME280;46263;44.726;10.396;2022-10-16T13:11:06;101236.97;;;20.59;66.24
60417;BME280;46263;44.726;10.396;2022-10-16T13:23:37;101239.81;;;20.59;65.83
60417;BME280;46263;44.726;10.396;2022-10-16T13:28:06;101246.22;;;20.60;65.96
60417;BME280;46263;44.726;10.396;2022-10-16T13:30:42;101239.97;;;20.61;65.96
60417;BME280;46263;44.726;10.396;2022-10-16T13:33:24;101245.66;;;20.61;66.25
60417;BME280;46263;44.726;10.396;2022-10-16T13:35:54;101243.59;;;20.62;66.03
60417;BME280;46263;44.726;10.396;2022-10-16T13:38:26;101239.97;;;20.61;66.00
60417;BME280;46263;44.726;10.396;2022-10-16T13:43:24;101237.13;;;20.61;65.99
60417;BME280;46263;44.726;10.396;2022-10-16T13:45:55;101241.13;;;20.58;65.92
60417;BME280;46263;44.726;10.396;2022-10-16T13:48:21;101235.63;;;20.60;66.03
60417;BME280;46263;44.726;10.396;2022-10-16T13:50:58;101237.31;;;20.63;65.82
60417;BME280;46263;44.726;10.396;2022-10-16T13:53:23;101241.69;;;20.64;65.76
60417;BME280;46263;44.726;10.396;2022-10-16T13:55:49;101238.66;;;20.62;65.69
60417;BME280;46263;44.726;10.396;2022-10-16T13:58:14;101243.19;;;20.65;65.84
60417;BME280;46263;44.726;10.396;2022-10-16T14:00:51;101242.25;;;20.63;65.84
60417;BME280;46263;44.726;10.396;2022-10-16T14:03:19;101239.41;;;20.63;65.98
60417;BME280;46263;44.726;10.396;2022-10-16T14:05:50;101245.84;;;20.63;65.83
60417;BME280;46263;44.726;10.396;2022-10-16T14:08:17;101241.69;;;20.64;65.78
60417;BME280;46263;44.726;10.396;2022-10-16T14:10:43;101250.00;;;20.62;65.88
60417;BME280;46263;44.726;10.396;2022-10-16T14:13:17;101245.66;;;20.61;65.78
60417;BME280;46263;44.726;10.396;2022-10-16T14:15:47;101250.00;;;20.62;65.69
60417;BME280;46263;44.726;10.396;2022-10-16T14:18:20;101250.00;;;20.62;65.74
60417;BME280;46263;44.726;10.396;2022-10-16T14:20:48;101244.34;;;20.62;66.02
60417;BME280;46263;44.726;10.396;2022-10-16T14:23:28;101243.59;;;20.62;66.06
60417;BME280;46263;44.726;10.396;2022-10-16T14:25:53;101247.75;;;20.61;65.94
60417;BME280;46263;44.726;10.396;2022-10-16T14:28:21;101247.75;;;20.61;65.81
60417;BME280;46263;44.726;10.396;2022-10-16T14:30:57;101252.84;;;20.62;65.69